createdAt,value
2023-05-10T00:02:29.608Z,56.13
2023-05-10T00:07:32.841Z,56.38
2023-05-10T00:12:35.786Z,56.50
2023-05-10T00:17:38.755Z,56.62
2023-05-10T00:22:41.755Z,56.57
2023-05-10T00:27:44.751Z,56.54
2023-05-10T00:32:49.309Z,56.61
2023-05-10T00:37:52.255Z,56.74
2023-05-10T00:42:55.214Z,56.38
2023-05-10T00:47:58.409Z,56.33
2023-05-10T00:53:03.205Z,56.13
2023-05-10T00:58:06.346Z,56.06
2023-05-10T01:03:09.389Z,56.19
2023-05-10T01:08:12.478Z,56.20
2023-05-10T01:13:24.480Z,56.40
2023-05-10T01:18:29.152Z,56.89
2023-05-10T01:23:57.934Z,57.38
2023-05-10T01:29:19.946Z,57.83
2023-05-10T01:34:32.708Z,58.01
2023-05-10T01:40:08.903Z,58.02
2023-05-10T01:45:38.041Z,57.94
2023-05-10T01:50:44.957Z,58.18
2023-05-10T01:55:53.446Z,58.21
2023-05-10T02:00:59.403Z,58.14
2023-05-10T02:06:04.332Z,58.00
2023-05-10T02:11:09.109Z,58.11
2023-05-10T02:16:14.444Z,58.64
2023-05-10T02:21:18.385Z,58.86
2023-05-10T02:26:24.805Z,58.71
2023-05-10T02:31:28.237Z,58.62
2023-05-10T02:36:31.502Z,58.94
2023-05-10T02:41:34.731Z,58.92
2023-05-10T02:46:38.811Z,59.07
2023-05-10T02:51:52.044Z,59.26
2023-05-10T02:57:03.984Z,59.44
2023-05-10T03:02:07.617Z,59.31
2023-05-10T03:07:10.777Z,59.43
2023-05-10T03:12:47.479Z,59.35
2023-05-10T03:18:03.206Z,59.16
2023-05-10T03:23:15.092Z,58.77
2023-05-10T03:28:19.867Z,58.85
2023-05-10T03:33:22.848Z,59.19
2023-05-10T03:38:26.844Z,59.21
2023-05-10T03:43:30.226Z,59.00
2023-05-10T03:48:34.485Z,57.93
2023-05-10T03:53:37.413Z,52.26
2023-05-10T03:58:40.340Z,48.04
2023-05-10T04:03:43.320Z,47.79
2023-05-10T04:08:46.254Z,48.62
2023-05-10T04:13:49.532Z,48.91
2023-05-10T04:18:52.484Z,49.06
2023-05-10T04:23:55.398Z,50.06
2023-05-10T04:28:58.300Z,50.54
2023-05-10T04:34:01.220Z,49.55
2023-05-10T04:39:05.052Z,46.48
2023-05-10T04:44:07.983Z,42.05
2023-05-10T04:49:10.893Z,37.20
2023-05-10T04:54:13.821Z,34.18
2023-05-10T04:59:16.807Z,31.66
2023-05-10T05:04:19.767Z,29.37
2023-05-10T05:09:22.677Z,28.46
2023-05-10T05:14:28.708Z,28.24
2023-05-10T05:19:32.860Z,30.44
2023-05-10T05:24:42.253Z,31.93
2023-05-10T05:29:45.417Z,33.37
2023-05-10T05:34:49.200Z,35.77
2023-05-10T05:39:52.448Z,37.36
2023-05-10T05:44:55.401Z,38.69
2023-05-10T05:49:58.377Z,40.12
2023-05-10T05:55:01.397Z,41.79
2023-05-10T06:00:05.188Z,42.60
2023-05-10T06:05:08.864Z,43.68
2023-05-10T06:10:11.887Z,45.07
2023-05-10T06:15:15.039Z,45.53
2023-05-10T06:20:18.389Z,45.88
2023-05-10T06:25:22.427Z,46.46
2023-05-10T06:30:29.636Z,45.89
2023-05-10T06:35:34.577Z,45.74
2023-05-10T06:40:37.628Z,45.65
2023-05-10T06:45:40.556Z,45.49
2023-05-10T06:50:43.503Z,45.43
2023-05-10T06:55:46.647Z,45.16
2023-05-10T07:00:49.677Z,43.95
2023-05-10T07:05:52.657Z,44.58
2023-05-10T07:11:04.528Z,45.15
2023-05-10T07:16:07.672Z,44.31
2023-05-10T07:21:10.663Z,43.98
2023-05-10T07:26:13.667Z,42.58
2023-05-10T07:31:16.990Z,43.44
2023-05-10T07:36:19.893Z,43.09
2023-05-10T07:41:23.563Z,42.07
2023-05-10T07:46:26.757Z,42.17
2023-05-10T07:51:32.852Z,41.98
2023-05-10T07:56:36.278Z,40.51
2023-05-10T08:01:39.210Z,40.36
2023-05-10T08:06:42.294Z,39.73
2023-05-10T08:11:45.317Z,39.58
2023-05-10T08:16:48.359Z,39.26
2023-05-10T08:21:51.328Z,38.77
2023-05-10T08:26:54.285Z,38.35
2023-05-10T08:31:57.210Z,37.80
2023-05-10T08:37:00.141Z,38.93
2023-05-10T08:42:05.686Z,41.01
2023-05-10T08:47:11.081Z,40.55
2023-05-10T08:52:16.523Z,40.48
2023-05-10T08:57:21.377Z,40.02
2023-05-10T09:02:25.243Z,39.45
2023-05-10T09:07:28.629Z,39.36
2023-05-10T09:12:31.505Z,39.75
2023-05-10T09:17:35.051Z,39.59
2023-05-10T09:22:38.944Z,39.54
2023-05-10T09:27:46.310Z,38.98
2023-05-10T09:32:49.603Z,39.35
2023-05-10T09:37:55.110Z,39.72
2023-05-10T09:43:11.939Z,39.22
2023-05-10T09:48:14.898Z,39.14
2023-05-10T09:53:17.892Z,38.31
2023-05-10T09:58:21.062Z,38.97
2023-05-10T10:03:25.406Z,38.84
2023-05-10T10:08:28.855Z,37.95
2023-05-10T10:13:33.163Z,37.38
2023-05-10T10:18:39.923Z,38.12
2023-05-10T10:23:42.980Z,38.15
2023-05-10T10:29:06.229Z,38.43
2023-05-10T10:34:26.859Z,36.99
2023-05-10T10:39:29.896Z,36.90
2023-05-10T10:44:34.796Z,37.50
2023-05-10T10:50:05.638Z,38.55
2023-05-10T10:55:27.660Z,37.69
2023-05-10T11:00:32.915Z,37.70
2023-05-10T11:05:42.376Z,37.26
2023-05-10T11:11:04.636Z,36.77
2023-05-10T11:16:17.539Z,35.47
2023-05-10T11:21:20.865Z,36.24
2023-05-10T11:26:27.331Z,36.76
2023-05-10T11:31:30.687Z,36.29
2023-05-10T11:36:36.931Z,37.20
2023-05-10T11:41:42.838Z,38.39
2023-05-10T11:46:46.142Z,36.58
2023-05-10T11:51:49.122Z,36.58
2023-05-10T11:56:52.092Z,37.39
2023-05-10T12:01:55.358Z,37.94
2023-05-10T12:06:58.208Z,36.70
2023-05-10T12:12:02.081Z,36.01
2023-05-10T12:17:05.989Z,37.27
2023-05-10T12:22:09.297Z,37.72
2023-05-10T12:32:45.195Z,37.78
2023-05-10T12:37:48.831Z,38.36
2023-05-10T12:42:52.280Z,38.42
2023-05-10T12:47:55.366Z,37.38
2023-05-10T12:52:58.305Z,37.37
2023-05-10T12:58:01.213Z,36.98
2023-05-10T13:03:06.219Z,36.59
2023-05-10T13:08:09.121Z,36.36
2023-05-10T13:13:12.121Z,36.98
2023-05-10T13:18:15.064Z,36.39
2023-05-10T13:23:18.001Z,36.03
2023-05-10T13:28:20.867Z,35.26
2023-05-10T13:33:23.760Z,35.64
2023-05-10T13:38:26.779Z,35.32
2023-05-10T13:43:30.759Z,35.71
2023-05-10T13:48:34.011Z,35.72
2023-05-10T13:53:37.575Z,36.35
2023-05-10T13:58:40.311Z,36.02
2023-05-10T14:03:43.377Z,35.50
2023-05-10T14:08:46.720Z,35.39
2023-05-10T14:13:49.534Z,35.59
2023-05-10T14:18:52.365Z,35.45
2023-05-10T14:23:56.576Z,35.57
2023-05-10T14:29:00.025Z,35.94
2023-05-10T14:34:04.005Z,35.44
2023-05-10T14:39:07.863Z,36.03
2023-05-10T14:44:11.133Z,35.30
2023-05-10T14:49:13.876Z,35.15
2023-05-10T14:54:19.640Z,35.86
2023-05-10T14:59:22.648Z,34.93
2023-05-10T15:04:27.769Z,35.39
2023-05-10T15:09:32.160Z,34.60
2023-05-10T15:14:37.314Z,34.81
2023-05-10T15:19:40.211Z,34.65
2023-05-10T15:24:43.183Z,34.83
2023-05-10T15:29:46.437Z,35.17
2023-05-10T15:34:49.215Z,35.27
2023-05-10T15:39:52.336Z,35.03
2023-05-10T15:44:55.264Z,34.46
2023-05-10T15:49:58.197Z,34.57
2023-05-10T15:55:01.123Z,34.97
2023-05-10T16:00:05.322Z,35.37
2023-05-10T16:05:10.332Z,36.14
2023-05-10T16:10:13.336Z,36.22
2023-05-10T16:15:16.649Z,35.94
2023-05-10T16:20:19.968Z,35.84
2023-05-10T16:25:22.936Z,35.84
2023-05-10T16:30:27.552Z,35.86
2023-05-10T16:35:30.636Z,36.06
2023-05-10T16:40:33.975Z,36.82
2023-05-10T16:45:36.868Z,36.80
2023-05-10T16:50:43.267Z,36.85
2023-05-10T16:55:46.208Z,36.69
2023-05-10T17:00:49.205Z,36.43
2023-05-10T17:05:52.153Z,36.33
2023-05-10T17:10:55.077Z,36.43
2023-05-10T17:15:58.266Z,36.28
2023-05-10T17:21:01.471Z,36.30
2023-05-10T17:26:06.341Z,36.97
2023-05-10T17:31:09.663Z,37.16
2023-05-10T17:36:12.539Z,37.53
2023-05-10T17:41:15.479Z,37.83
2023-05-10T17:46:18.653Z,38.02
2023-05-10T17:51:21.640Z,38.28
2023-05-10T17:56:24.589Z,38.60
2023-05-10T18:01:27.846Z,39.09
2023-05-10T18:06:30.870Z,39.11
2023-05-10T18:11:36.730Z,39.45
2023-05-10T18:16:39.797Z,39.65
2023-05-10T18:21:42.850Z,39.98
2023-05-10T18:26:46.024Z,40.27
2023-05-10T18:31:49.073Z,40.46
2023-05-10T18:36:52.512Z,40.79
2023-05-10T18:41:55.402Z,40.83
2023-05-10T18:46:59.358Z,40.89
2023-05-10T18:52:02.333Z,41.28
2023-05-10T18:57:05.526Z,41.64
2023-05-10T19:02:08.681Z,41.89
2023-05-10T19:07:11.816Z,41.91
2023-05-10T19:12:15.028Z,41.82
2023-05-10T19:17:19.388Z,42.16
2023-05-10T19:22:36.036Z,42.44
2023-05-10T19:27:45.645Z,42.48
2023-05-10T19:32:48.653Z,42.84
2023-05-10T19:37:51.942Z,42.79
2023-05-10T19:42:57.165Z,42.95
2023-05-10T19:48:00.230Z,43.09
2023-05-10T19:53:03.222Z,43.24
2023-05-10T19:58:06.657Z,43.64
2023-05-10T20:03:09.696Z,43.83
2023-05-10T20:08:12.697Z,44.02
2023-05-10T20:13:15.656Z,44.07
2023-05-10T20:18:18.582Z,44.26
2023-05-10T20:23:22.696Z,44.18
2023-05-10T20:28:26.400Z,44.03
2023-05-10T20:33:29.458Z,44.37
2023-05-10T20:38:32.573Z,44.52
2023-05-10T20:43:35.790Z,44.42
2023-05-10T20:48:38.724Z,44.58
2023-05-10T20:53:41.706Z,44.55
2023-05-10T20:58:45.032Z,44.84
2023-05-10T21:03:48.056Z,44.82
2023-05-10T21:08:50.971Z,44.87
2023-05-10T21:13:53.914Z,45.03
2023-05-10T21:18:56.964Z,45.41
2023-05-10T21:23:59.916Z,45.46
2023-05-10T21:29:04.900Z,45.27
2023-05-10T21:34:07.935Z,45.37
2023-05-10T21:39:11.899Z,45.44
2023-05-10T21:44:14.869Z,45.46
2023-05-10T21:49:17.946Z,45.61
2023-05-10T21:54:20.901Z,45.81
2023-05-10T21:59:23.823Z,45.89
2023-05-10T22:04:26.730Z,45.95
2023-05-10T22:09:29.743Z,46.08
2023-05-10T22:14:32.654Z,46.28
2023-05-10T22:19:35.614Z,46.32
2023-05-10T22:24:38.759Z,46.75
2023-05-10T22:29:42.311Z,46.67
2023-05-10T22:34:45.248Z,46.55
2023-05-10T22:39:49.170Z,46.64
2023-05-10T22:44:52.395Z,46.96
2023-05-10T22:49:55.687Z,47.14
2023-05-10T22:54:58.786Z,47.07
2023-05-10T23:00:04.467Z,47.27
2023-05-10T23:05:08.287Z,47.63
2023-05-10T23:10:11.552Z,47.73
2023-05-10T23:15:14.599Z,47.81
2023-05-10T23:20:17.855Z,48.15
2023-05-10T23:25:21.109Z,48.18
2023-05-10T23:30:24.060Z,48.39
2023-05-10T23:35:27.114Z,48.64
2023-05-10T23:40:30.047Z,49.12
2023-05-10T23:45:34.004Z,48.77
2023-05-10T23:50:37.321Z,49.01
2023-05-10T23:55:40.241Z,48.96
